createdAt,value
2018-11-21T00:00:17.472Z,52.90
2018-11-21T00:02:46.559Z,49.30
2018-11-21T00:05:15.443Z,47.27
2018-11-21T00:07:44.359Z,51.30
2018-11-21T00:10:13.657Z,50.10
2018-11-21T00:12:45.281Z,51.17
2018-11-21T00:15:14.119Z,48.93
2018-11-21T00:17:42.982Z,49.43
2018-11-21T00:20:11.856Z,55.55
2018-11-21T00:22:40.671Z,56.93
2018-11-21T00:25:09.643Z,58.65
2018-11-21T00:27:38.424Z,52.37
2018-11-21T00:30:09.996Z,53.13
2018-11-21T00:32:38.864Z,49.47
2018-11-21T00:35:08.827Z,49.23
2018-11-21T00:37:37.698Z,54.87
2018-11-21T00:40:11.184Z,51.67
2018-11-21T00:42:46.372Z,52.97
2018-11-21T00:45:09.786Z,50.97
2018-11-21T00:47:38.652Z,46.30
2018-11-21T00:50:07.876Z,47.93
2018-11-21T00:52:36.979Z,50.00
2018-11-21T00:55:06.439Z,47.03
2018-11-21T00:57:35.153Z,42.77
2018-11-21T01:00:04.103Z,44.33
2018-11-21T01:02:32.958Z,48.00
2018-11-21T01:05:01.712Z,49.93
2018-11-21T01:07:30.681Z,47.83
2018-11-21T01:09:59.590Z,46.20
2018-11-21T01:12:28.380Z,53.75
2018-11-21T01:14:57.305Z,45.20
2018-11-21T01:17:25.992Z,44.30
2018-11-21T01:19:54.760Z,46.23
2018-11-21T01:22:23.461Z,44.10
2018-11-21T01:24:52.265Z,43.73
2018-11-21T01:27:21.144Z,38.70
2018-11-21T01:29:50.200Z,37.77
2018-11-21T01:32:19.009Z,40.87
2018-11-21T01:34:47.725Z,42.97
2018-11-21T01:37:16.419Z,50.80
2018-11-21T01:39:45.289Z,42.63
2018-11-21T01:42:14.048Z,50.37
2018-11-21T01:44:42.852Z,46.73
2018-11-21T01:47:11.764Z,46.77
2018-11-21T01:49:40.412Z,56.60
2018-11-21T01:52:09.239Z,53.67
2018-11-21T01:54:37.900Z,51.90
2018-11-21T01:57:06.801Z,53.97
2018-11-21T01:59:35.545Z,52.37
2018-11-21T02:02:04.290Z,49.63
2018-11-21T02:04:33.055Z,52.30
2018-11-21T02:07:01.900Z,56.67
2018-11-21T02:09:30.648Z,56.00
2018-11-21T02:11:59.446Z,46.93
2018-11-21T02:14:28.242Z,49.63
2018-11-21T02:16:56.889Z,50.90
2018-11-21T02:19:25.607Z,47.83
2018-11-21T02:21:54.378Z,50.20
2018-11-21T02:24:23.062Z,47.63
2018-11-21T02:26:51.880Z,51.90
2018-11-21T02:29:20.644Z,50.60
2018-11-21T02:31:49.428Z,44.43
2018-11-21T02:34:18.226Z,50.43
2018-11-21T02:36:47.012Z,49.53
2018-11-21T02:39:15.657Z,46.90
2018-11-21T02:41:44.707Z,58.03
2018-11-21T02:44:13.389Z,51.50
2018-11-21T02:46:42.040Z,48.50
2018-11-21T02:49:10.867Z,51.63
2018-11-21T02:51:39.824Z,49.00
2018-11-21T02:54:08.608Z,53.00
2018-11-21T02:57:18.081Z,51.17
2018-11-21T02:59:47.155Z,48.73
2018-11-21T03:02:15.961Z,44.30
2018-11-21T03:04:44.643Z,50.27
2018-11-21T03:07:13.314Z,51.60
2018-11-21T03:09:42.121Z,51.20
2018-11-21T03:12:10.912Z,49.50
2018-11-21T03:14:39.689Z,51.63
2018-11-21T03:17:08.485Z,48.23
2018-11-21T03:19:37.263Z,49.17
2018-11-21T03:22:06.399Z,54.83
2018-11-21T03:24:35.265Z,46.90
2018-11-21T03:27:04.067Z,57.70
2018-11-21T03:29:32.819Z,53.40
2018-11-21T03:32:01.765Z,48.73
2018-11-21T03:34:30.602Z,50.43
2018-11-21T03:36:59.506Z,50.73
2018-11-21T03:39:28.221Z,47.53
2018-11-21T03:41:57.626Z,49.13
2018-11-21T03:44:26.313Z,47.83
2018-11-21T03:46:54.980Z,51.67
2018-11-21T03:49:23.844Z,46.73
2018-11-21T03:51:52.740Z,52.83
2018-11-21T03:54:21.571Z,44.97
2018-11-21T03:56:50.349Z,48.10
2018-11-21T03:59:19.323Z,48.87
2018-11-21T04:01:48.038Z,48.50
2018-11-21T04:04:16.894Z,43.60
2018-11-21T04:06:45.671Z,49.33
2018-11-21T04:09:14.599Z,52.07
2018-11-21T04:11:43.581Z,43.27
2018-11-21T04:14:12.574Z,47.87
2018-11-21T04:16:41.493Z,56.57
2018-11-21T04:19:10.125Z,53.07
2018-11-21T04:21:38.820Z,59.50
2018-11-21T04:24:07.562Z,56.70
2018-11-21T04:26:36.392Z,59.60
2018-11-21T04:29:05.191Z,57.60
2018-11-21T04:31:33.859Z,57.33
2018-11-21T04:34:02.786Z,53.80
2018-11-21T04:36:31.456Z,55.33
2018-11-21T04:39:00.153Z,53.50
2018-11-21T04:41:28.955Z,58.17
2018-11-21T04:43:57.814Z,56.53
2018-11-21T04:46:26.665Z,60.90
2018-11-21T04:48:55.389Z,53.13
2018-11-21T04:51:24.069Z,52.77
2018-11-21T04:53:55.588Z,52.53
2018-11-21T04:56:24.433Z,54.93
2018-11-21T04:58:53.311Z,48.27
2018-11-21T05:01:22.138Z,53.97
2018-11-21T05:03:51.113Z,49.43
2018-11-21T05:06:19.904Z,45.40
2018-11-21T05:08:48.619Z,51.53
2018-11-21T05:11:17.261Z,49.33
2018-11-21T05:13:46.074Z,45.70
2018-11-21T05:16:14.865Z,39.63
2018-11-21T05:18:43.750Z,45.60
2018-11-21T05:21:12.404Z,38.13
2018-11-21T05:23:41.205Z,44.97
2018-11-21T05:26:10.008Z,37.53
2018-11-21T05:28:38.631Z,41.73
2018-11-21T05:31:07.489Z,35.27
2018-11-21T05:33:36.278Z,39.77
2018-11-21T05:36:05.255Z,40.30
2018-11-21T05:38:33.980Z,42.03
2018-11-21T05:41:02.712Z,36.73
2018-11-21T05:43:31.414Z,33.87
2018-11-21T05:46:00.203Z,39.43
2018-11-21T05:48:28.878Z,31.73
2018-11-21T05:50:57.672Z,31.40
2018-11-21T05:53:26.477Z,33.53
2018-11-21T05:55:55.448Z,30.40
2018-11-21T05:58:24.357Z,27.83
2018-11-21T06:00:53.138Z,29.63
2018-11-21T06:03:22.052Z,32.83
2018-11-21T06:05:50.804Z,33.43
2018-11-21T06:08:19.691Z,30.97
2018-11-21T06:10:48.490Z,32.20
2018-11-21T06:13:17.320Z,31.87
2018-11-21T06:15:46.129Z,35.60
2018-11-21T06:18:14.966Z,33.73
2018-11-21T06:20:43.867Z,33.43
2018-11-21T06:23:12.698Z,30.53
2018-11-21T06:25:41.521Z,31.67
2018-11-21T06:28:10.577Z,29.67
2018-11-21T06:30:39.431Z,31.77
2018-11-21T06:33:08.234Z,27.10
2018-11-21T06:35:37.209Z,26.97
2018-11-21T06:38:06.010Z,31.27
2018-11-21T06:40:34.779Z,28.40
2018-11-21T06:43:03.691Z,28.47
2018-11-21T06:45:32.600Z,27.90
2018-11-21T06:48:01.260Z,22.23
2018-11-21T06:50:30.160Z,23.27
2018-11-21T06:52:59.180Z,25.83
2018-11-21T06:55:27.940Z,25.20
2018-11-21T06:57:59.272Z,26.83
2018-11-21T07:00:28.197Z,24.97
2018-11-21T07:02:57.157Z,28.45
2018-11-21T07:05:26.090Z,26.40
2018-11-21T07:07:54.952Z,30.92
2018-11-21T07:10:23.742Z,27.50
2018-11-21T07:12:52.656Z,26.10
2018-11-21T07:15:21.418Z,27.97
2018-11-21T07:17:50.211Z,31.70
2018-11-21T07:20:19.117Z,25.67
2018-11-21T07:22:47.874Z,29.40
2018-11-21T07:25:20.759Z,25.53
2018-11-21T07:27:49.700Z,25.87
2018-11-21T07:30:19.059Z,23.63
2018-11-21T07:32:47.937Z,21.67
2018-11-21T07:35:18.153Z,19.63
2018-11-21T07:37:46.148Z,22.93
2018-11-21T07:40:15.743Z,19.00
2018-11-21T07:42:44.539Z,23.90
2018-11-21T07:45:14.510Z,19.07
2018-11-21T07:47:43.956Z,24.40
2018-11-21T07:50:14.918Z,24.52
2018-11-21T07:52:43.817Z,18.20
2018-11-21T07:55:13.092Z,20.73
2018-11-21T07:57:43.451Z,21.40
2018-11-21T08:00:46.197Z,18.37
2018-11-21T08:03:15.546Z,18.57
2018-11-21T08:05:46.664Z,24.63
2018-11-21T08:08:28.051Z,18.20
2018-11-21T08:11:22.119Z,19.63
2018-11-21T08:14:10.154Z,16.87
2018-11-21T08:17:07.433Z,18.53
2018-11-21T08:19:54.258Z,18.97
2018-11-21T08:22:44.480Z,24.27
2018-11-21T08:25:31.578Z,20.07
2018-11-21T08:28:25.403Z,22.87
2018-11-21T08:30:54.245Z,25.13
2018-11-21T08:33:23.204Z,22.13
2018-11-21T08:35:51.974Z,24.43
2018-11-21T08:38:20.894Z,28.13
2018-11-21T08:40:49.750Z,33.10
2018-11-21T08:43:18.549Z,29.53
2018-11-21T08:45:47.502Z,32.30
2018-11-21T08:48:17.133Z,32.90
2018-11-21T08:50:46.039Z,35.30
2018-11-21T08:53:17.208Z,38.93
2018-11-21T08:55:46.184Z,40.70
2018-11-21T08:58:15.058Z,38.07
2018-11-21T09:00:44.097Z,39.50
2018-11-21T09:03:13.032Z,38.37
2018-11-21T09:05:41.857Z,39.53
2018-11-21T09:08:10.755Z,39.13
2018-11-21T09:10:39.603Z,39.03
2018-11-21T09:13:08.409Z,41.13
2018-11-21T09:15:37.230Z,41.57
2018-11-21T09:18:06.186Z,34.33
2018-11-21T09:20:34.984Z,46.43
2018-11-21T09:23:03.904Z,39.97
2018-11-21T09:25:32.791Z,38.97
2018-11-21T09:28:01.697Z,38.60
2018-11-21T09:30:30.551Z,42.03
2018-11-21T09:32:59.852Z,39.80
2018-11-21T09:35:28.784Z,40.40
2018-11-21T09:37:57.442Z,39.57
2018-11-21T09:40:26.230Z,42.80
2018-11-21T09:42:56.143Z,44.67
2018-11-21T09:45:25.356Z,45.67
2018-11-21T09:47:54.208Z,36.80
2018-11-21T09:50:27.314Z,44.00
2018-11-21T09:52:56.099Z,39.47
2018-11-21T09:55:24.890Z,50.20
2018-11-21T09:57:53.775Z,46.20
2018-11-21T10:00:58.817Z,40.33
2018-11-21T10:03:38.118Z,45.73
2018-11-21T10:06:12.785Z,44.50
2018-11-21T10:08:46.004Z,40.73
2018-11-21T10:11:15.095Z,43.93
2018-11-21T10:13:43.963Z,49.20
2018-11-21T10:16:12.762Z,38.77
2018-11-21T10:18:45.530Z,51.33
2018-11-21T10:21:15.984Z,51.60
2018-11-21T10:23:45.265Z,43.93
2018-11-21T10:26:13.728Z,40.70
2018-11-21T10:28:43.143Z,40.77
2018-11-21T10:31:12.014Z,42.37
2018-11-21T10:33:40.710Z,39.77
2018-11-21T10:36:09.541Z,38.13
2018-11-21T10:38:38.390Z,40.93
2018-11-21T10:41:07.284Z,44.07
2018-11-21T10:43:36.819Z,41.43
2018-11-21T10:46:06.057Z,39.03
2018-11-21T10:48:34.916Z,37.80
2018-11-21T10:51:03.938Z,45.23
2018-11-21T10:53:32.860Z,43.93
2018-11-21T10:56:01.709Z,40.50
2018-11-21T10:58:30.508Z,45.27
2018-11-21T11:01:22.829Z,42.47
2018-11-21T11:03:57.453Z,39.03
2018-11-21T11:06:44.139Z,39.50
2018-11-21T11:09:44.715Z,38.83
2018-11-21T11:12:29.657Z,38.60
2018-11-21T11:15:17.642Z,38.10
2018-11-21T11:18:04.264Z,38.37
2018-11-21T11:20:52.294Z,37.50
2018-11-21T11:23:38.853Z,37.70
2018-11-21T11:26:26.721Z,38.70
2018-11-21T11:29:17.856Z,35.00
2018-11-21T11:31:58.251Z,39.43
2018-11-21T11:34:55.047Z,39.97
2018-11-21T11:37:41.755Z,32.93
2018-11-21T11:40:36.007Z,37.07
2018-11-21T11:43:30.097Z,28.27
2018-11-21T11:46:18.032Z,32.30
2018-11-21T11:49:18.177Z,30.03
2018-11-21T11:52:04.754Z,30.63
2018-11-21T11:54:43.690Z,34.33
2018-11-21T11:57:30.516Z,31.60
2018-11-21T12:00:20.813Z,33.77
2018-11-21T12:03:07.588Z,27.80
2018-11-21T12:06:01.255Z,33.47
2018-11-21T12:08:44.373Z,26.70
2018-11-21T12:11:32.277Z,27.80
2018-11-21T12:14:35.169Z,27.93
2018-11-21T12:17:26.016Z,23.43
2018-11-21T12:20:13.948Z,25.40
2018-11-21T12:23:14.086Z,23.67
2018-11-21T12:26:16.947Z,21.20
2018-11-21T12:28:58.763Z,22.43
2018-11-21T12:31:45.267Z,25.93
2018-11-21T12:34:28.498Z,20.97
2018-11-21T12:37:28.619Z,21.10
2018-11-21T12:40:15.481Z,24.43
2018-11-21T12:43:21.368Z,24.40
2018-11-21T12:46:15.153Z,23.97
2018-11-21T12:49:01.762Z,24.97
2018-11-21T12:52:01.589Z,24.67
2018-11-21T12:54:47.895Z,24.57
2018-11-21T12:57:38.795Z,23.07
2018-11-21T13:00:43.307Z,25.90
2018-11-21T13:03:49.492Z,22.83
2018-11-21T13:06:46.157Z,24.00
2018-11-21T13:09:32.411Z,24.27
2018-11-21T13:12:23.255Z,24.00
2018-11-21T13:15:09.792Z,23.20
2018-11-21T13:17:56.320Z,25.23
2018-11-21T13:20:45.084Z,28.60
2018-11-21T13:23:48.379Z,24.70
2018-11-21T13:26:35.019Z,28.90
2018-11-21T13:29:22.891Z,27.47
2018-11-21T13:32:09.190Z,28.43
2018-11-21T13:35:05.956Z,29.90
2018-11-21T13:37:52.989Z,27.83
2018-11-21T13:40:29.419Z,27.47
2018-11-21T13:43:26.227Z,29.60
2018-11-21T13:46:14.146Z,28.23
2018-11-21T13:48:57.958Z,30.77
2018-11-21T13:51:45.726Z,29.23
2018-11-21T13:54:32.517Z,28.57
2018-11-21T13:57:01.261Z,31.47
2018-11-21T13:59:30.051Z,30.00
2018-11-21T14:01:58.870Z,25.40
2018-11-21T14:04:27.616Z,26.90
2018-11-21T14:06:56.528Z,23.80
2018-11-21T14:09:25.437Z,25.60
2018-11-21T14:11:54.329Z,19.80
2018-11-21T14:14:23.192Z,19.67
2018-11-21T14:16:52.025Z,21.47
2018-11-21T14:19:21.013Z,21.93
2018-11-21T14:21:49.920Z,18.77
2018-11-21T14:24:18.684Z,20.20
2018-11-21T14:26:47.593Z,22.40
2018-11-21T14:29:16.479Z,24.90
2018-11-21T14:31:45.657Z,22.73
2018-11-21T14:34:14.526Z,23.80
2018-11-21T14:36:43.321Z,23.53
2018-11-21T14:39:13.485Z,22.53
2018-11-21T14:41:43.753Z,21.73
2018-11-21T14:44:12.867Z,26.50
2018-11-21T14:46:42.842Z,24.10
2018-11-21T14:49:11.683Z,23.63
2018-11-21T14:51:40.554Z,24.87
2018-11-21T14:54:09.485Z,21.73
2018-11-21T14:56:38.469Z,28.23
2018-11-21T14:59:07.219Z,20.43
2018-11-21T15:01:38.813Z,23.67
